sensor_id;sensor_type;location;lat;lon;timestamp;P1;durP1;ratioP1;P2;durP2;ratioP2
71821;SDS011;64096;52.548;13.406;2022-11-03T06:05:19;5.22;;;2.72;;
71821;SDS011;64096;52.548;13.406;2022-11-03T06:07:46;5.28;;;2.00;;
71821;SDS011;64096;52.548;13.406;2022-11-03T06:10:17;5.65;;;2.47;;
71821;SDS011;64096;52.548;13.406;2022-11-03T06:12:45;7.63;;;2.60;;
71821;SDS011;64096;52.548;13.406;2022-11-03T06:15:19;5.82;;;2.45;;
71821;SDS011;64096;52.548;13.406;2022-11-03T06:17:46;5.05;;;2.28;;
71821;SDS011;64096;52.548;13.406;2022-11-03T06:20:15;5.60;;;2.60;;
71821;SDS011;64096;52.548;13.406;2022-11-03T06:22:43;4.20;;;2.03;;
71821;SDS011;64096;52.548;13.406;2022-11-03T06:27:35;5.32;;;2.30;;
71821;SDS011;64096;52.548;13.406;2022-11-03T06:30:04;6.10;;;2.50;;
71821;SDS011;64096;52.548;13.406;2022-11-03T06:32:37;5.53;;;2.80;;
71821;SDS011;64096;52.548;13.406;2022-11-03T06:35:03;5.32;;;2.55;;
71821;SDS011;64096;52.548;13.406;2022-11-03T06:37:34;6.38;;;2.47;;
71821;SDS011;64096;52.548;13.406;2022-11-03T06:42:35;5.38;;;2.67;;
71821;SDS011;64096;52.548;13.406;2022-11-03T06:45:12;7.10;;;2.97;;
71821;SDS011;64096;52.548;13.406;2022-11-03T06:47:39;5.07;;;2.63;;
71821;SDS011;64096;52.548;13.406;2022-11-03T06:50:07;5.40;;;2.30;;
71821;SDS011;64096;52.548;13.406;2022-11-03T06:52:44;4.75;;;2.40;;
71821;SDS011;64096;52.548;13.406;2022-11-03T06:57:39;5.85;;;2.42;;
71821;SDS011;64096;52.548;13.406;2022-11-03T07:00:10;8.25;;;2.63;;
71821;SDS011;64096;52.548;13.406;2022-11-03T07:05:19;4.88;;;2.13;;
71821;SDS011;64096;52.548;13.406;2022-11-03T07:07:46;5.68;;;2.50;;
71821;SDS011;64096;52.548;13.406;2022-11-03T07:10:12;6.18;;;2.55;;
71821;SDS011;64096;52.548;13.406;2022-11-03T07:12:39;7.03;;;2.58;;
71821;SDS011;64096;52.548;13.406;2022-11-03T07:15:14;8.13;;;2.40;;
71821;SDS011;64096;52.548;13.406;2022-11-03T07:17:41;5.32;;;2.67;;
71821;SDS011;64096;52.548;13.406;2022-11-03T07:20:14;6.30;;;2.58;;
71821;SDS011;64096;52.548;13.406;2022-11-03T07:22:41;5.68;;;2.58;;
71821;SDS011;64096;52.548;13.406;2022-11-03T07:25:08;5.75;;;2.58;;
71821;SDS011;64096;52.548;13.406;2022-11-03T07:27:38;5.63;;;2.20;;
71821;SDS011;64096;52.548;13.406;2022-11-03T07:30:09;6.45;;;2.67;;
71821;SDS011;64096;52.548;13.406;2022-11-03T07:32:39;5.95;;;2.55;;
71821;SDS011;64096;52.548;13.406;2022-11-03T07:37:43;7.57;;;2.40;;
71821;SDS011;64096;52.548;13.406;2022-11-03T07:40:14;6.90;;;2.50;;
71821;SDS011;64096;52.548;13.406;2022-11-03T07:42:41;5.05;;;2.20;;
71821;SDS011;64096;52.548;13.406;2022-11-03T07:45:29;5.60;;;2.45;;
71821;SDS011;64096;52.548;13.406;2022-11-03T07:47:53;5.25;;;2.35;;
71821;SDS011;64096;52.548;13.406;2022-11-03T07:50:19;7.78;;;2.60;;
71821;SDS011;64096;52.548;13.406;2022-11-03T07:52:45;7.60;;;2.60;;
71821;SDS011;64096;52.548;13.406;2022-11-03T07:55:11;5.53;;;2.72;;
71821;SDS011;64096;52.548;13.406;2022-11-03T07:57:38;6.28;;;2.30;;
71821;SDS011;64096;52.548;13.406;2022-11-03T08:00:05;8.60;;;2.78;;
71821;SDS011;64096;52.548;13.406;2022-11-03T08:05:00;8.20;;;2.83;;
71821;SDS011;64096;52.548;13.406;2022-11-03T08:07:26;6.47;;;2.42;;
71821;SDS011;64096;52.548;13.406;2022-11-03T08:09:53;7.18;;;3.03;;
71821;SDS011;64096;52.548;13.406;2022-11-03T08:12:19;9.32;;;3.70;;
71821;SDS011;64096;52.548;13.406;2022-11-03T08:14:45;7.13;;;3.13;;
71821;SDS011;64096;52.548;13.406;2022-11-03T08:17:11;7.07;;;3.25;;
71821;SDS011;64096;52.548;13.406;2022-11-03T08:19:38;6.88;;;2.90;;
71821;SDS011;64096;52.548;13.406;2022-11-03T08:22:04;6.28;;;2.70;;
71821;SDS011;64096;52.548;13.406;2022-11-03T08:24:30;6.10;;;2.80;;
71821;SDS011;64096;52.548;13.406;2022-11-03T08:26:56;5.32;;;2.53;;
71821;SDS011;64096;52.548;13.406;2022-11-03T08:29:22;7.43;;;3.08;;
71821;SDS011;64096;52.548;13.406;2022-11-03T08:31:52;7.25;;;2.83;;
71821;SDS011;64096;52.548;13.406;2022-11-03T08:34:18;6.55;;;2.97;;
71821;SDS011;64096;52.548;13.406;2022-11-03T08:36:44;8.25;;;3.17;;
71821;SDS011;64096;52.548;13.406;2022-11-03T08:39:10;6.13;;;2.90;;
71821;SDS011;64096;52.548;13.406;2022-11-03T08:41:36;7.68;;;3.28;;
71821;SDS011;64096;52.548;13.406;2022-11-03T08:44:02;11.00;;;3.20;;
71821;SDS011;64096;52.548;13.406;2022-11-03T08:46:28;6.95;;;3.20;;
71821;SDS011;64096;52.548;13.406;2022-11-03T08:48:56;6.68;;;3.08;;
71821;SDS011;64096;52.548;13.406;2022-11-03T08:51:22;8.10;;;3.13;;
71821;SDS011;64096;52.548;13.406;2022-11-03T08:53:48;6.32;;;2.45;;
71821;SDS011;64096;52.548;13.406;2022-11-03T08:56:19;7.55;;;2.75;;
71821;SDS011;64096;52.548;13.406;2022-11-03T08:58:46;4.75;;;2.17;;
71821;SDS011;64096;52.548;13.406;2022-11-03T09:01:12;6.13;;;2.33;;
71821;SDS011;64096;52.548;13.406;2022-11-03T09:03:39;5.72;;;2.58;;
71821;SDS011;64096;52.548;13.406;2022-11-03T09:06:05;8.15;;;2.80;;
71821;SDS011;64096;52.548;13.406;2022-11-03T09:08:31;5.80;;;2.45;;
71821;SDS011;64096;52.548;13.406;2022-11-03T09:10:57;7.40;;;2.30;;
71821;SDS011;64096;52.548;13.406;2022-11-03T09:13:23;5.43;;;2.42;;
71821;SDS011;64096;52.548;13.406;2022-11-03T09:15:49;4.68;;;2.20;;
71821;SDS011;64096;52.548;13.406;2022-11-03T09:18:16;10.02;;;2.42;;
71821;SDS011;64096;52.548;13.406;2022-11-03T09:20:42;6.75;;;2.35;;
71821;SDS011;64096;52.548;13.406;2022-11-03T09:23:09;7.82;;;2.05;;
71821;SDS011;64096;52.548;13.406;2022-11-03T09:25:35;7.15;;;2.30;;
71821;SDS011;64096;52.548;13.406;2022-11-03T09:28:01;6.13;;;2.22;;
71821;SDS011;64096;52.548;13.406;2022-11-03T09:30:27;5.63;;;2.30;;
71821;SDS011;64096;52.548;13.406;2022-11-03T09:32:53;4.60;;;2.13;;
71821;SDS011;64096;52.548;13.406;2022-11-03T09:35:19;4.53;;;1.70;;
71821;SDS011;64096;52.548;13.406;2022-11-03T09:37:46;5.15;;;1.95;;
71821;SDS011;64096;52.548;13.406;2022-11-03T09:40:12;6.72;;;2.10;;
71821;SDS011;64096;52.548;13.406;2022-11-03T09:42:39;6.47;;;2.28;;
71821;SDS011;64096;52.548;13.406;2022-11-03T09:45:06;5.00;;;2.08;;
71821;SDS011;64096;52.548;13.406;2022-11-03T09:47:36;7.30;;;2.25;;
71821;SDS011;64096;52.548;13.406;2022-11-03T09:50:03;6.10;;;2.47;;
71821;SDS011;64096;52.548;13.406;2022-11-03T09:52:29;6.00;;;2.42;;
71821;SDS011;64096;52.548;13.406;2022-11-03T09:54:55;5.57;;;2.47;;
71821;SDS011;64096;52.548;13.406;2022-11-03T09:57:25;7.53;;;2.83;;
71821;SDS011;64096;52.548;13.406;2022-11-03T09:59:51;6.82;;;2.30;;
71821;SDS011;64096;52.548;13.406;2022-11-03T10:02:25;5.32;;;2.28;;
71821;SDS011;64096;52.548;13.406;2022-11-03T10:04:51;7.47;;;2.55;;
71821;SDS011;64096;52.548;13.406;2022-11-03T10:07:18;4.90;;;1.88;;
71821;SDS011;64096;52.548;13.406;2022-11-03T10:09:46;6.50;;;2.25;;
71821;SDS011;64096;52.548;13.406;2022-11-03T10:12:13;4.82;;;1.88;;
71821;SDS011;64096;52.548;13.406;2022-11-03T10:14:40;5.07;;;2.08;;
71821;SDS011;64096;52.548;13.406;2022-11-03T10:17:07;4.80;;;2.05;;
71821;SDS011;64096;52.548;13.406;2022-11-03T10:19:37;5.07;;;1.80;;
71821;SDS011;64096;52.548;13.406;2022-11-03T10:22:03;5.97;;;2.00;;
71821;SDS011;64096;52.548;13.406;2022-11-03T10:24:29;5.85;;;1.92;;
71821;SDS011;64096;52.548;13.406;2022-11-03T10:26:55;5.53;;;2.00;;
71821;SDS011;64096;52.548;13.406;2022-11-03T10:29:22;5.05;;;1.88;;
71821;SDS011;64096;52.548;13.406;2022-11-03T10:31:50;5.00;;;1.95;;
71821;SDS011;64096;52.548;13.406;2022-11-03T10:34:31;5.72;;;2.30;;
71821;SDS011;64096;52.548;13.406;2022-11-03T10:40:03;6.18;;;2.05;;
71821;SDS011;64096;52.548;13.406;2022-11-03T10:42:47;5.25;;;1.80;;
71821;SDS011;64096;52.548;13.406;2022-11-03T10:45:22;6.40;;;2.20;;
71821;SDS011;64096;52.548;13.406;2022-11-03T10:48:03;5.53;;;2.05;;
71821;SDS011;64096;52.548;13.406;2022-11-03T10:50:30;5.55;;;2.05;;
71821;SDS011;64096;52.548;13.406;2022-11-03T10:52:57;6.22;;;2.40;;
71821;SDS011;64096;52.548;13.406;2022-11-03T10:55:23;6.10;;;1.98;;
71821;SDS011;64096;52.548;13.406;2022-11-03T10:57:49;5.95;;;2.55;;
71821;SDS011;64096;52.548;13.406;2022-11-03T11:00:16;7.97;;;2.53;;
71821;SDS011;64096;52.548;13.406;2022-11-03T11:02:43;5.72;;;2.05;;
71821;SDS011;64096;52.548;13.406;2022-11-03T11:05:15;6.63;;;1.80;;
71821;SDS011;64096;52.548;13.406;2022-11-03T11:07:43;6.57;;;2.05;;
71821;SDS011;64096;52.548;13.406;2022-11-03T11:12:38;6.57;;;1.83;;
71821;SDS011;64096;52.548;13.406;2022-11-03T11:15:33;4.32;;;1.63;;
71821;SDS011;64096;52.548;13.406;2022-11-03T11:17:50;4.72;;;1.60;;
71821;SDS011;64096;52.548;13.406;2022-11-03T11:22:46;4.47;;;1.70;;
71821;SDS011;64096;52.548;13.406;2022-11-03T11:25:12;5.65;;;1.63;;
71821;SDS011;64096;52.548;13.406;2022-11-03T11:37:47;6.95;;;3.10;;
71821;SDS011;64096;52.548;13.406;2022-11-03T11:48:15;5.45;;;2.28;;
71821;SDS011;64096;52.548;13.406;2022-11-03T11:50:42;4.65;;;2.05;;
71821;SDS011;64096;52.548;13.406;2022-11-03T11:53:09;5.57;;;2.55;;
71821;SDS011;64096;52.548;13.406;2022-11-03T11:55:43;4.82;;;1.95;;
71821;SDS011;64096;52.548;13.406;2022-11-03T11:58:14;5.63;;;2.00;;
71821;SDS011;64096;52.548;13.406;2022-11-03T12:01:01;4.82;;;2.08;;
71821;SDS011;64096;52.548;13.406;2022-11-03T12:03:29;5.07;;;1.80;;
71821;SDS011;64096;52.548;13.406;2022-11-03T12:05:55;4.47;;;1.77;;
71821;SDS011;64096;52.548;13.406;2022-11-03T12:08:25;4.95;;;2.08;;
71821;SDS011;64096;52.548;13.406;2022-11-03T12:11:04;7.82;;;2.10;;
71821;SDS011;64096;52.548;13.406;2022-11-03T12:16:32;3.90;;;1.52;;
71821;SDS011;64096;52.548;13.406;2022-11-03T12:21:47;6.28;;;1.88;;
71821;SDS011;64096;52.548;13.406;2022-11-03T12:26:58;7.30;;;1.90;;
71821;SDS011;64096;52.548;13.406;2022-11-03T12:29:25;5.13;;;1.80;;
71821;SDS011;64096;52.548;13.406;2022-11-03T12:31:51;4.05;;;1.63;;
71821;SDS011;64096;52.548;13.406;2022-11-03T12:34:17;4.50;;;1.92;;
71821;SDS011;64096;52.548;13.406;2022-11-03T12:36:44;6.00;;;1.88;;
71821;SDS011;64096;52.548;13.406;2022-11-03T12:39:10;5.10;;;2.15;;
71821;SDS011;64096;52.548;13.406;2022-11-03T12:41:37;4.57;;;1.48;;
71821;SDS011;64096;52.548;13.406;2022-11-03T12:44:03;4.35;;;1.45;;
71821;SDS011;64096;52.548;13.406;2022-11-03T12:46:30;6.00;;;1.80;;
71821;SDS011;64096;52.548;13.406;2022-11-03T12:48:56;6.00;;;1.58;;
71821;SDS011;64096;52.548;13.406;2022-11-03T12:51:23;7.25;;;1.70;;
71821;SDS011;64096;52.548;13.406;2022-11-03T12:53:49;6.35;;;3.00;;
71821;SDS011;64096;52.548;13.406;2022-11-03T12:56:16;6.03;;;2.60;;
71821;SDS011;64096;52.548;13.406;2022-11-03T12:58:42;8.38;;;3.10;;
71821;SDS011;64096;52.548;13.406;2022-11-03T13:01:09;6.07;;;2.30;;
71821;SDS011;64096;52.548;13.406;2022-11-03T13:03:35;4.47;;;2.00;;
71821;SDS011;64096;52.548;13.406;2022-11-03T13:06:02;5.32;;;1.80;;
71821;SDS011;64096;52.548;13.406;2022-11-03T13:08:29;3.92;;;1.45;;
71821;SDS011;64096;52.548;13.406;2022-11-03T13:10:55;4.25;;;1.80;;
71821;SDS011;64096;52.548;13.406;2022-11-03T13:13:21;4.32;;;1.90;;
71821;SDS011;64096;52.548;13.406;2022-11-03T13:15:47;6.55;;;1.98;;
71821;SDS011;64096;52.548;13.406;2022-11-03T13:18:13;8.75;;;1.88;;
71821;SDS011;64096;52.548;13.406;2022-11-03T13:20:39;3.75;;;1.83;;
71821;SDS011;64096;52.548;13.406;2022-11-03T13:23:05;6.40;;;1.63;;
71821;SDS011;64096;52.548;13.406;2022-11-03T13:25:31;5.63;;;1.77;;
71821;SDS011;64096;52.548;13.406;2022-11-03T13:27:57;3.85;;;1.90;;
71821;SDS011;64096;52.548;13.406;2022-11-03T13:30:24;4.80;;;2.20;;
71821;SDS011;64096;52.548;13.406;2022-11-03T13:32:51;6.90;;;2.45;;
71821;SDS011;64096;52.548;13.406;2022-11-03T13:35:17;5.38;;;2.20;;
71821;SDS011;64096;52.548;13.406;2022-11-03T13:37:44;6.25;;;2.13;;
71821;SDS011;64096;52.548;13.406;2022-11-03T13:40:13;4.68;;;1.77;;
71821;SDS011;64096;52.548;13.406;2022-11-03T13:42:39;4.15;;;1.80;;
71821;SDS011;64096;52.548;13.406;2022-11-03T13:45:06;5.10;;;1.73;;
71821;SDS011;64096;52.548;13.406;2022-11-03T13:47:32;4.97;;;1.85;;
71821;SDS011;64096;52.548;13.406;2022-11-03T13:49:58;5.80;;;1.70;;
71821;SDS011;64096;52.548;13.406;2022-11-03T13:52:25;5.65;;;2.05;;
71821;SDS011;64096;52.548;13.406;2022-11-03T13:54:51;6.45;;;2.00;;
71821;SDS011;64096;52.548;13.406;2022-11-03T13:57:18;4.40;;;1.98;;
71821;SDS011;64096;52.548;13.406;2022-11-03T13:59:44;5.63;;;2.25;;
